createdAt,value
2019-01-31T00:03:46.020Z,2.80
2019-01-31T00:09:10.642Z,2.93
2019-01-31T00:15:01.167Z,2.50
2019-01-31T00:20:50.414Z,2.70
2019-01-31T00:26:38.301Z,2.60
2019-01-31T00:32:01.796Z,2.80
2019-01-31T00:37:44.094Z,2.43
2019-01-31T00:43:14.428Z,2.80
2019-01-31T00:49:09.723Z,3.10
2019-01-31T00:54:47.765Z,2.80
2019-01-31T01:00:09.839Z,2.77
2019-01-31T01:05:27.497Z,2.90
2019-01-31T01:11:16.712Z,2.80
2019-01-31T01:16:37.976Z,3.23
2019-01-31T01:22:25.771Z,2.77
2019-01-31T01:28:12.803Z,2.77
2019-01-31T01:33:28.678Z,3.17
2019-01-31T01:39:21.640Z,2.90
2019-01-31T01:44:38.224Z,3.00
2019-01-31T01:49:50.419Z,3.20
2019-01-31T01:55:08.280Z,3.30
2019-01-31T02:00:48.028Z,3.70
2019-01-31T02:07:01.685Z,3.37
2019-01-31T02:12:59.291Z,4.10
2019-01-31T02:18:19.375Z,3.13
2019-01-31T02:24:05.527Z,3.70
2019-01-31T02:29:41.476Z,3.30
2019-01-31T02:35:19.118Z,3.40
2019-01-31T02:40:58.545Z,3.33
2019-01-31T02:46:56.217Z,3.50
2019-01-31T02:52:37.425Z,3.80
2019-01-31T02:58:15.553Z,4.00
2019-01-31T03:03:49.366Z,4.00
2019-01-31T03:09:16.039Z,3.57
2019-01-31T03:14:27.331Z,3.27
2019-01-31T03:19:49.593Z,2.67
2019-01-31T03:25:34.689Z,2.93
2019-01-31T03:31:29.609Z,2.60
2019-01-31T03:37:01.483Z,2.93
2019-01-31T03:42:20.778Z,3.20
2019-01-31T03:48:10.633Z,3.33
2019-01-31T03:53:59.014Z,3.00
2019-01-31T03:59:10.611Z,3.00
2019-01-31T04:04:28.194Z,3.37
2019-01-31T04:09:33.338Z,3.60
2019-01-31T04:14:39.360Z,3.20
2019-01-31T04:19:45.635Z,3.60
2019-01-31T04:24:50.927Z,3.37
2019-01-31T04:29:56.104Z,3.07
2019-01-31T04:35:01.317Z,3.23
2019-01-31T04:40:07.931Z,3.17
2019-01-31T04:45:13.271Z,3.23
2019-01-31T04:50:18.730Z,2.63
2019-01-31T04:55:23.903Z,2.40
2019-01-31T05:00:29.124Z,2.47
2019-01-31T05:05:35.387Z,2.27
2019-01-31T05:10:43.316Z,2.47
2019-01-31T05:15:47.557Z,2.23
2019-01-31T05:20:53.229Z,2.50
2019-01-31T05:25:58.441Z,2.60
2019-01-31T05:31:03.715Z,3.27
2019-01-31T05:36:08.941Z,3.00
2019-01-31T05:41:14.104Z,3.00
2019-01-31T05:46:19.295Z,3.17
2019-01-31T05:51:24.491Z,3.13
2019-01-31T05:56:29.688Z,2.93
2019-01-31T06:01:34.897Z,3.33
2019-01-31T06:06:40.075Z,3.67
2019-01-31T06:11:45.269Z,3.57
2019-01-31T06:16:50.443Z,3.73
2019-01-31T06:21:56.603Z,3.90
2019-01-31T06:27:02.744Z,3.90
2019-01-31T06:32:07.933Z,3.60
2019-01-31T06:37:13.764Z,3.80
2019-01-31T06:42:18.948Z,3.73
2019-01-31T06:47:24.448Z,4.03
2019-01-31T06:52:30.497Z,3.60
2019-01-31T06:57:35.675Z,3.60
2019-01-31T07:02:40.857Z,3.77
2019-01-31T07:07:46.046Z,4.57
2019-01-31T07:12:51.233Z,4.07
2019-01-31T07:17:56.736Z,3.40
2019-01-31T07:23:02.059Z,4.00
2019-01-31T07:28:07.267Z,3.70
2019-01-31T07:33:12.500Z,3.50
2019-01-31T07:38:17.689Z,3.20
2019-01-31T07:43:22.889Z,3.60
2019-01-31T07:48:28.074Z,3.23
2019-01-31T07:53:33.244Z,3.63
2019-01-31T07:58:38.428Z,3.40
2019-01-31T08:03:44.478Z,3.47
2019-01-31T08:08:49.649Z,3.50
2019-01-31T08:13:54.825Z,3.63
2019-01-31T08:19:00.045Z,3.40
2019-01-31T08:24:05.492Z,3.00
2019-01-31T08:29:10.870Z,2.80
2019-01-31T08:34:17.268Z,2.80
2019-01-31T08:39:22.449Z,3.10
2019-01-31T08:44:27.636Z,3.70
2019-01-31T08:49:32.929Z,3.10
2019-01-31T08:54:38.108Z,3.13
2019-01-31T08:59:43.289Z,2.93
2019-01-31T09:04:48.469Z,3.07
2019-01-31T09:09:53.656Z,2.60
2019-01-31T09:14:59.017Z,2.53
2019-01-31T09:20:04.832Z,2.50
2019-01-31T09:26:02.424Z,2.60
2019-01-31T09:32:13.087Z,2.77
2019-01-31T09:37:54.462Z,2.80
2019-01-31T09:43:17.419Z,2.70
2019-01-31T09:49:07.008Z,3.20
2019-01-31T09:54:33.565Z,2.80
2019-01-31T10:00:34.508Z,2.43
2019-01-31T10:06:25.767Z,2.30
2019-01-31T10:12:12.203Z,3.20
2019-01-31T10:18:04.804Z,2.00
2019-01-31T10:23:51.961Z,2.10
2019-01-31T10:29:36.741Z,1.90
2019-01-31T10:35:11.742Z,2.00
2019-01-31T10:40:53.412Z,1.77
2019-01-31T10:46:13.128Z,1.40
2019-01-31T10:51:42.736Z,1.90
2019-01-31T10:57:07.959Z,2.13
2019-01-31T11:02:55.500Z,1.27
2019-01-31T11:09:00.411Z,1.50
2019-01-31T11:14:41.044Z,1.40
2019-01-31T11:20:06.800Z,1.30
2019-01-31T11:25:55.166Z,1.40
2019-01-31T11:31:37.122Z,1.50
2019-01-31T11:37:22.122Z,1.57
2019-01-31T11:42:45.143Z,1.50
2019-01-31T11:48:17.374Z,1.80
2019-01-31T11:53:45.837Z,2.50
2019-01-31T11:59:02.455Z,1.70
2019-01-31T12:04:16.433Z,1.80
2019-01-31T12:09:22.592Z,1.40
2019-01-31T12:14:28.311Z,1.47
2019-01-31T12:19:33.456Z,2.10
2019-01-31T12:24:38.901Z,1.30
2019-01-31T12:29:44.071Z,1.40
2019-01-31T12:34:49.608Z,1.27
2019-01-31T12:39:54.796Z,1.53
2019-01-31T12:45:01.099Z,2.13
2019-01-31T12:50:07.503Z,1.57
2019-01-31T12:55:12.764Z,1.40
2019-01-31T13:00:26.920Z,1.30
2019-01-31T13:05:32.434Z,2.03
2019-01-31T13:10:37.606Z,1.40
2019-01-31T13:15:42.913Z,1.37
2019-01-31T13:20:48.522Z,1.70
2019-01-31T13:25:54.707Z,1.90
2019-01-31T13:31:00.302Z,1.53
2019-01-31T13:36:12.574Z,1.30
2019-01-31T13:41:17.760Z,1.20
2019-01-31T13:46:24.343Z,1.37
2019-01-31T13:51:29.640Z,1.30
2019-01-31T13:56:45.243Z,1.60
2019-01-31T14:01:41.692Z,1.80
2019-01-31T14:06:46.907Z,1.47
2019-01-31T14:11:53.194Z,1.73
2019-01-31T14:16:58.659Z,1.50
2019-01-31T14:22:03.937Z,1.57
2019-01-31T14:27:10.074Z,1.57
2019-01-31T14:32:17.220Z,1.50
2019-01-31T14:37:22.420Z,1.40
2019-01-31T14:42:27.590Z,1.77
2019-01-31T14:47:33.850Z,1.40
2019-01-31T14:52:39.062Z,6.33
2019-01-31T14:57:44.548Z,13.23
2019-01-31T15:02:51.032Z,4.10
2019-01-31T15:07:56.206Z,2.60
2019-01-31T15:13:01.374Z,1.63
2019-01-31T15:18:08.198Z,1.60
2019-01-31T15:23:13.375Z,1.70
2019-01-31T15:28:18.545Z,1.53
2019-01-31T15:33:23.717Z,1.57
2019-01-31T15:38:28.992Z,1.70
2019-01-31T15:43:34.166Z,1.80
2019-01-31T15:48:39.764Z,1.67
2019-01-31T15:53:44.960Z,1.90
2019-01-31T15:58:50.143Z,2.07
2019-01-31T16:03:55.669Z,2.00
2019-01-31T16:09:01.894Z,2.10
2019-01-31T16:14:07.682Z,1.97
2019-01-31T16:19:12.972Z,3.00
2019-01-31T16:24:18.599Z,2.20
2019-01-31T16:29:23.783Z,2.53
2019-01-31T16:34:29.270Z,2.33
2019-01-31T16:39:34.499Z,2.20
2019-01-31T16:44:39.849Z,2.93
2019-01-31T16:49:45.145Z,2.70
2019-01-31T16:54:50.383Z,2.77
2019-01-31T16:59:55.718Z,2.83
2019-01-31T17:05:00.900Z,2.97
2019-01-31T17:10:07.355Z,3.07
2019-01-31T17:15:18.133Z,2.93
2019-01-31T17:20:26.940Z,2.60
2019-01-31T17:25:32.229Z,2.80
2019-01-31T17:30:37.698Z,3.10
2019-01-31T17:35:42.906Z,2.97
2019-01-31T17:40:49.868Z,2.90
2019-01-31T17:45:55.153Z,1.80
2019-01-31T17:51:01.133Z,1.90
2019-01-31T17:56:07.244Z,2.50
2019-01-31T18:01:12.424Z,2.33
2019-01-31T18:06:18.912Z,2.93
2019-01-31T18:11:24.289Z,2.60
2019-01-31T18:16:29.558Z,2.90
2019-01-31T18:21:34.792Z,3.30
2019-01-31T18:26:45.953Z,3.47
2019-01-31T18:31:51.365Z,3.70
2019-01-31T18:36:56.939Z,3.10
2019-01-31T18:42:02.473Z,3.00
2019-01-31T18:47:07.755Z,3.83
2019-01-31T18:52:12.946Z,3.70
2019-01-31T18:57:18.712Z,4.00
2019-01-31T19:02:23.936Z,4.37
2019-01-31T19:07:29.139Z,4.63
2019-01-31T19:12:34.498Z,4.37
2019-01-31T19:17:40.724Z,4.57
2019-01-31T19:22:47.282Z,4.43
2019-01-31T19:27:52.658Z,4.83
2019-01-31T19:32:57.894Z,4.40
2019-01-31T19:38:03.249Z,4.00
2019-01-31T19:43:08.554Z,4.77
2019-01-31T19:48:14.172Z,4.87
2019-01-31T19:53:20.027Z,4.20
2019-01-31T19:58:26.878Z,5.27
2019-01-31T20:03:32.129Z,4.50
2019-01-31T20:08:37.161Z,4.60
2019-01-31T20:13:43.926Z,4.20
2019-01-31T20:18:49.700Z,4.10
2019-01-31T20:23:54.876Z,4.30
2019-01-31T20:29:00.054Z,5.10
2019-01-31T20:34:05.859Z,4.00
2019-01-31T20:39:11.142Z,5.27
2019-01-31T20:44:16.335Z,5.67
2019-01-31T20:49:21.522Z,5.93
2019-01-31T20:54:27.698Z,5.60
2019-01-31T20:59:33.040Z,5.70
2019-01-31T21:04:38.227Z,6.13
2019-01-31T21:09:43.497Z,5.90
2019-01-31T21:14:49.004Z,5.97
2019-01-31T21:19:54.373Z,5.63
2019-01-31T21:24:59.835Z,5.73
2019-01-31T21:30:06.979Z,6.07
2019-01-31T21:35:13.388Z,6.17
2019-01-31T21:40:19.039Z,5.93
2019-01-31T21:45:24.618Z,6.80
2019-01-31T21:50:30.042Z,6.30
2019-01-31T21:55:35.293Z,7.13
2019-01-31T22:00:40.558Z,7.43
2019-01-31T22:05:46.039Z,6.90
2019-01-31T22:10:52.482Z,7.10
2019-01-31T22:15:57.676Z,6.70
2019-01-31T22:21:02.932Z,7.07
2019-01-31T22:26:08.163Z,6.27
2019-01-31T22:31:13.907Z,7.37
2019-01-31T22:36:19.523Z,6.87
2019-01-31T22:41:25.179Z,8.13
2019-01-31T22:46:30.438Z,7.67
2019-01-31T22:51:37.509Z,7.37
2019-01-31T22:56:42.547Z,7.60
2019-01-31T23:01:53.766Z,7.23
2019-01-31T23:06:59.099Z,7.40
2019-01-31T23:12:04.510Z,6.93
2019-01-31T23:17:09.732Z,7.13
2019-01-31T23:22:14.994Z,7.93
2019-01-31T23:27:20.309Z,8.10
2019-01-31T23:32:25.508Z,7.50
2019-01-31T23:37:31.107Z,9.00
2019-01-31T23:42:36.288Z,8.67
2019-01-31T23:47:48.546Z,10.33
2019-01-31T23:52:48.375Z,9.40
2019-01-31T23:57:53.588Z,8.80
